METAR AND TAF INFORMATION
METAR FOR MMTM
ADDS - METARS form results

(2015 UTC 25 April 2018)
Data provider http://aviationweather.gov/adds/metars/
 
METAR text: MMTM 251949Z E09010KT 8SM SCT020 29/23 A2993 RMK 8/100 HZY AC
Conditions at: MMTM (TAMPICO/GEN FJ M, MX) observed 1949 UTC 25 April 2018
Temperature: 29.0°C (84°F)
Dewpoint: 23.0°C (73°F) [RH = 70%]
Pressure (altimeter): 29.93 inches Hg (1013.6 mb)
Winds: from the E (90 degrees) at 12 MPH (10 knots; 5.2 m/s)
Visibility: 8 miles (13 km)
Ceiling: at least 12,000 feet AGL
Clouds: scattered clouds at 2000 feet AGL
Weather: no significant weather observed at this time

Forecast for: MMTM (TAMPICO/GEN FJ M, MX)
Text: TAF MMTM 251640Z 2518/2618 12010KT 5SM VC RA HZ BKN015 OVC070
Forecast period: 1800 to 2000 UTC 25 April 2018
Forecast type: FROM: standard forecast or significant change
Winds: from the ESE (120 degrees) at 12 MPH (10 knots; 5.2 m/s)
Visibility: 5 miles (8 km)
Ceiling: 1500 feet AGL
Clouds: broken clouds at 1500 feet AGL
overcast cloud deck at 7000 feet AGL
Weather: VC RA HZ  (vicinity, rain, haze)
Forecast for: MMTM (TAMPICO/GEN FJ M, MX)
Text: TAF MMTM 251640Z 2518/2618 12010KT 5SM VC RA HZ BKN015 OVC070
Forecast period: 1800 to 2000 UTC 25 April 2018
Forecast type: FROM: standard forecast or significant change
Winds: from the ESE (120 degrees) at 12 MPH (10 knots; 5.2 m/s)
Visibility: 5 miles (8 km)
Ceiling: 1500 feet AGL
Clouds: broken clouds at 1500 feet AGL
overcast cloud deck at 7000 feet AGL
Weather: VC RA HZ  (vicinity, rain, haze)
Forecast for: MMTM (TAMPICO/GEN FJ M, MX)
Text: TAF MMTM 251640Z 2518/2618 12010KT 5SM VC RA HZ BKN015 OVC070
Forecast period: 2000 UTC 25 April 2018 to 0600 UTC 26 April 2018
Forecast type: FROM: standard forecast or significant change
Winds: from the ESE (120 degrees) at 17 MPH (15 knots; 7.8 m/s)
Visibility: 6 or more miles (10+ km)
Ceiling: 2000 feet AGL
Clouds: broken clouds at 2000 feet AGL
Weather: no significant weather forecast for this period
Forecast for: MMTM (TAMPICO/GEN FJ M, MX)
Text: TAF MMTM 251640Z 2518/2618 12010KT 5SM VC RA HZ BKN015 OVC070
Forecast period: 2000 UTC 25 April 2018 to 0600 UTC 26 April 2018
Forecast type: FROM: standard forecast or significant change
Winds: from the ESE (120 degrees) at 17 MPH (15 knots; 7.8 m/s)
Visibility: 6 or more miles (10+ km)
Ceiling: 2000 feet AGL
Clouds: broken clouds at 2000 feet AGL
Weather: no significant weather forecast for this period
Forecast for: MMTM (TAMPICO/GEN FJ M, MX)
Text: TAF MMTM 251640Z 2518/2618 12010KT 5SM VC RA HZ BKN015 OVC070
Forecast period: 0200 to 0600 UTC 26 April 2018
Forecast type: TEMPORARY: The following changes expected for less than half the time period
Visibility: 3 miles (5 km)
Ceiling: 1500 feet AGL
Clouds: broken clouds at 1500 feet AGL
Weather: TSRA  (rain associated with thunderstorm(s))
Forecast for: MMTM (TAMPICO/GEN FJ M, MX)
Text: TAF MMTM 251640Z 2518/2618 12010KT 5SM VC RA HZ BKN015 OVC070
Forecast period: 0200 to 0600 UTC 26 April 2018
Forecast type: TEMPORARY: The following changes expected for less than half the time period
Visibility: 3 miles (5 km)
Ceiling: 1500 feet AGL
Clouds: broken clouds at 1500 feet AGL
Weather: TSRA  (rain associated with thunderstorm(s))
Forecast for: MMTM (TAMPICO/GEN FJ M, MX)
Text: TAF MMTM 251640Z 2518/2618 12010KT 5SM VC RA HZ BKN015 OVC070
Forecast period: 0600 to 1600 UTC 26 April 2018
Forecast type: FROM: standard forecast or significant change
Winds: from the NE (40 degrees) at 12 MPH (10 knots; 5.2 m/s)
Visibility: 3 miles (5 km)
Ceiling: 1000 feet AGL
Clouds: overcast cloud deck at 1000 feet AGL
Weather: RA  (rain)
Forecast for: MMTM (TAMPICO/GEN FJ M, MX)
Text: TAF MMTM 251640Z 2518/2618 12010KT 5SM VC RA HZ BKN015 OVC070
Forecast period: 0600 to 1600 UTC 26 April 2018
Forecast type: FROM: standard forecast or significant change
Winds: from the NE (40 degrees) at 12 MPH (10 knots; 5.2 m/s)
Visibility: 3 miles (5 km)
Ceiling: 1000 feet AGL
Clouds: overcast cloud deck at 1000 feet AGL
Weather: RA  (rain)
Forecast for: MMTM (TAMPICO/GEN FJ M, MX)
Text: TAF MMTM 251640Z 2518/2618 12010KT 5SM VC RA HZ BKN015 OVC070
Forecast period: 1000 to 1400 UTC 26 April 2018
Forecast type: TEMPORARY: The following changes expected for less than half the time period
Visibility: 1.00 miles (1.61 km)
Ceiling: 500 feet AGL
Clouds: overcast cloud deck at 500 feet AGL
Weather: RA  (rain)
Forecast for: MMTM (TAMPICO/GEN FJ M, MX)
Text: TAF MMTM 251640Z 2518/2618 12010KT 5SM VC RA HZ BKN015 OVC070
Forecast period: 1000 to 1400 UTC 26 April 2018
Forecast type: TEMPORARY: The following changes expected for less than half the time period
Visibility: 1.00 miles (1.61 km)
Ceiling: 500 feet AGL
Clouds: overcast cloud deck at 500 feet AGL
Weather: RA  (rain)
Forecast for: MMTM (TAMPICO/GEN FJ M, MX)
Text: TAF MMTM 251640Z 2518/2618 12010KT 5SM VC RA HZ BKN015 OVC070
Forecast period: 1600 to 1800 UTC 26 April 2018
Forecast type: FROM: standard forecast or significant change
Winds: from the NNW (340 degrees) at 12 MPH (10 knots; 5.2 m/s)
Visibility: 5 miles (8 km)
Ceiling: 1500 feet AGL
Clouds: overcast cloud deck at 1500 feet AGL
Weather: RA  (rain)
Forecast for: MMTM (TAMPICO/GEN FJ M, MX)
Text: TAF MMTM 251640Z 2518/2618 12010KT 5SM VC RA HZ BKN015 OVC070
Forecast period: 1600 to 1800 UTC 26 April 2018
Forecast type: FROM: standard forecast or significant change
Winds: from the NNW (340 degrees) at 12 MPH (10 knots; 5.2 m/s)
Visibility: 5 miles (8 km)
Ceiling: 1500 feet AGL
Clouds: overcast cloud deck at 1500 feet AGL
Weather: RA  (rain)

 AIRPORT MAP

 RUNWAY INFORMATION
Runway 09 Runway length 3937 ft Runway width 98 ft
Runway elevation 80 ft Runway displaced threshold 0 ft Runway heading 100
Runway 27 Runway length 3937 ft Runway width 98 ft
Runway elevation 80 ft Runway displaced threshold 0 ft Runway heading 280
Runway 13 Runway length 8366 ft Runway width 148 ft
Runway elevation 80 ft Runway displaced threshold 0 ft Runway heading 145
Runway 31 Runway length 8366 ft Runway width 148 ft
Runway elevation 80 ft Runway displaced threshold 0 ft Runway heading 325
Runway 18 Runway length 4265 ft Runway width 98 ft
Runway elevation 80 ft Runway displaced threshold 0 ft Runway heading 190
Runway 36 Runway length 4265 ft Runway width 98 ft
Runway elevation 80 ft Runway displaced threshold 0 ft Runway heading 10

 AIRPORT FREQUENCIES
Type APP Name TAMPICO AP Frequency 120.3 MHZ
Type TWR Name TAMPICO TW Frequency 118.3 MHZ

 AIRPORT NEAR NAVIGATION AIDS
Type VOR-DME Name Tampico Frequency 117500 KHZ
Type NDB Name Tampico Frequency 413 KHZ



Powered by Virtual Airlines Manager [v2.6.2]